sensor_id;sensor_type;location;lat;lon;timestamp;pressure;altitude;pressure_sealevel;temperature;humidity
57452;BME280;66031;51.224;-0.164;2023-03-11T00:00:19;100173.47;;;20.43;26.64
57452;BME280;66031;51.224;-0.164;2023-03-11T00:02:43;100178.56;;;20.45;26.43
57452;BME280;66031;51.224;-0.164;2023-03-11T00:05:13;100201.06;;;20.48;26.34
57452;BME280;66031;51.224;-0.164;2023-03-11T00:07:34;100206.67;;;20.50;26.49
57452;BME280;66031;51.224;-0.164;2023-03-11T00:09:59;100203.71;;;20.45;26.58
57452;BME280;66031;51.224;-0.164;2023-03-11T00:12:25;100205.12;;;20.31;26.66
57452;BME280;66031;51.224;-0.164;2023-03-11T00:14:50;100211.51;;;20.11;26.60
57452;BME280;66031;51.224;-0.164;2023-03-11T00:17:15;100204.58;;;20.17;26.51
57452;BME280;66031;51.224;-0.164;2023-03-11T00:19:41;100202.34;;;19.99;26.40
57452;BME280;66031;51.224;-0.164;2023-03-11T00:22:07;100204.64;;;20.36;26.51
57452;BME280;66031;51.224;-0.164;2023-03-11T00:24:33;100212.99;;;20.07;26.56
57452;BME280;66031;51.224;-0.164;2023-03-11T00:26:57;100212.55;;;20.19;26.62
57452;BME280;66031;51.224;-0.164;2023-03-11T00:29:23;100207.53;;;20.15;26.64
57452;BME280;66031;51.224;-0.164;2023-03-11T00:31:48;100203.71;;;19.92;26.62
57452;BME280;66031;51.224;-0.164;2023-03-11T00:34:14;100198.95;;;20.10;26.66
57452;BME280;66031;51.224;-0.164;2023-03-11T00:36:39;100197.59;;;19.86;26.63
57452;BME280;66031;51.224;-0.164;2023-03-11T00:39:05;100199.44;;;19.80;26.61
57452;BME280;66031;51.224;-0.164;2023-03-11T00:41:30;100188.75;;;20.04;26.62
57452;BME280;66031;51.224;-0.164;2023-03-11T00:43:55;100190.33;;;19.96;26.62
57452;BME280;66031;51.224;-0.164;2023-03-11T00:46:21;100184.53;;;19.89;26.63
57452;BME280;66031;51.224;-0.164;2023-03-11T00:48:49;100169.77;;;19.88;26.67
57452;BME280;66031;51.224;-0.164;2023-03-11T00:51:13;100167.96;;;19.80;26.73
57452;BME280;66031;51.224;-0.164;2023-03-11T00:53:37;100163.15;;;19.88;26.61
57452;BME280;66031;51.224;-0.164;2023-03-11T00:56:07;100163.67;;;19.64;26.58
57452;BME280;66031;51.224;-0.164;2023-03-11T00:58:28;100163.96;;;19.91;26.53
57452;BME280;66031;51.224;-0.164;2023-03-11T01:00:54;100171.26;;;19.96;26.44
57452;BME280;66031;51.224;-0.164;2023-03-11T01:03:19;100171.03;;;19.84;26.55
57452;BME280;66031;51.224;-0.164;2023-03-11T01:05:44;100174.15;;;19.78;26.56
57452;BME280;66031;51.224;-0.164;2023-03-11T01:08:10;100173.27;;;19.74;26.58
57452;BME280;66031;51.224;-0.164;2023-03-11T01:10:35;100176.19;;;19.71;26.56
57452;BME280;66031;51.224;-0.164;2023-03-11T01:13:01;100181.29;;;19.66;26.60
57452;BME280;66031;51.224;-0.164;2023-03-11T01:15:28;100183.70;;;19.63;26.57
57452;BME280;66031;51.224;-0.164;2023-03-11T01:17:52;100184.77;;;19.89;26.34
57452;BME280;66031;51.224;-0.164;2023-03-11T01:20:17;100185.57;;;19.87;26.27
57452;BME280;66031;51.224;-0.164;2023-03-11T01:22:43;100183.33;;;19.41;26.45
57452;BME280;66031;51.224;-0.164;2023-03-11T01:25:11;100184.53;;;19.64;26.42
57452;BME280;66031;51.224;-0.164;2023-03-11T01:27:33;100184.73;;;19.53;26.52
57452;BME280;66031;51.224;-0.164;2023-03-11T01:29:59;100185.35;;;19.56;26.46
57452;BME280;66031;51.224;-0.164;2023-03-11T01:32:24;100180.22;;;19.56;26.51
57452;BME280;66031;51.224;-0.164;2023-03-11T01:34:49;100175.69;;;19.48;26.55
57452;BME280;66031;51.224;-0.164;2023-03-11T01:37:15;100176.74;;;19.49;26.50
57452;BME280;66031;51.224;-0.164;2023-03-11T01:39:40;100177.96;;;19.50;26.47
57452;BME280;66031;51.224;-0.164;2023-03-11T01:42:06;100176.41;;;19.41;26.51
57452;BME280;66031;51.224;-0.164;2023-03-11T01:44:31;100176.67;;;19.64;26.46
57452;BME280;66031;51.224;-0.164;2023-03-11T01:49:22;100177.51;;;19.30;26.51
57452;BME280;66031;51.224;-0.164;2023-03-11T01:51:49;100174.97;;;19.46;26.55
57452;BME280;66031;51.224;-0.164;2023-03-11T01:54:16;100174.61;;;19.16;26.65
57452;BME280;66031;51.224;-0.164;2023-03-11T01:56:39;100172.01;;;19.33;26.65
57452;BME280;66031;51.224;-0.164;2023-03-11T01:59:05;100170.82;;;19.37;26.57
57452;BME280;66031;51.224;-0.164;2023-03-11T02:01:29;100169.47;;;19.37;26.54
57452;BME280;66031;51.224;-0.164;2023-03-11T02:03:55;100170.81;;;19.63;26.51
57452;BME280;66031;51.224;-0.164;2023-03-11T02:06:22;100168.95;;;19.54;26.60
57452;BME280;66031;51.224;-0.164;2023-03-11T02:08:47;100165.69;;;19.28;26.50
57452;BME280;66031;51.224;-0.164;2023-03-11T02:11:15;100169.28;;;19.00;26.58
57452;BME280;66031;51.224;-0.164;2023-03-11T02:13:38;100165.25;;;19.26;26.52
57452;BME280;66031;51.224;-0.164;2023-03-11T02:16:03;100164.33;;;18.97;26.56
57452;BME280;66031;51.224;-0.164;2023-03-11T02:18:27;100161.99;;;19.24;26.27
57452;BME280;66031;51.224;-0.164;2023-03-11T02:21:00;100162.00;;;19.38;26.33
57452;BME280;66031;51.224;-0.164;2023-03-11T02:23:22;100159.67;;;18.97;26.45
57452;BME280;66031;51.224;-0.164;2023-03-11T02:25:49;100156.18;;;18.89;26.53
57452;BME280;66031;51.224;-0.164;2023-03-11T02:28:11;100149.11;;;19.35;26.55
57452;BME280;66031;51.224;-0.164;2023-03-11T02:30:35;100145.24;;;19.03;26.58
57452;BME280;66031;51.224;-0.164;2023-03-11T02:33:00;100141.05;;;19.29;26.54
57452;BME280;66031;51.224;-0.164;2023-03-11T02:35:26;100138.17;;;19.23;26.55
57452;BME280;66031;51.224;-0.164;2023-03-11T02:37:52;100139.00;;;19.28;26.50
57452;BME280;66031;51.224;-0.164;2023-03-11T02:40:30;100134.75;;;19.23;26.49
57452;BME280;66031;51.224;-0.164;2023-03-11T02:42:42;100136.35;;;19.26;26.46
57452;BME280;66031;51.224;-0.164;2023-03-11T02:45:11;100132.66;;;18.90;26.58
57452;BME280;66031;51.224;-0.164;2023-03-11T02:47:34;100132.67;;;18.75;26.46
57452;BME280;66031;51.224;-0.164;2023-03-11T02:49:59;100131.75;;;19.28;26.36
57452;BME280;66031;51.224;-0.164;2023-03-11T02:52:24;100123.55;;;19.25;26.13
57452;BME280;66031;51.224;-0.164;2023-03-11T02:54:49;100119.46;;;19.16;26.13
57452;BME280;66031;51.224;-0.164;2023-03-11T02:57:15;100120.04;;;19.36;26.22
57452;BME280;66031;51.224;-0.164;2023-03-11T02:59:40;100114.35;;;19.03;26.27
57452;BME280;66031;51.224;-0.164;2023-03-11T03:02:06;100110.42;;;18.73;26.32
57452;BME280;66031;51.224;-0.164;2023-03-11T03:04:31;100112.74;;;19.14;26.39
57452;BME280;66031;51.224;-0.164;2023-03-11T03:06:57;100114.02;;;19.10;26.36
57452;BME280;66031;51.224;-0.164;2023-03-11T03:09:22;100113.83;;;19.07;26.35
57452;BME280;66031;51.224;-0.164;2023-03-11T03:11:47;100117.46;;;18.94;26.26
57452;BME280;66031;51.224;-0.164;2023-03-11T03:14:13;100107.98;;;19.01;26.38
57452;BME280;66031;51.224;-0.164;2023-03-11T03:16:38;100112.43;;;19.00;26.36
57452;BME280;66031;51.224;-0.164;2023-03-11T03:19:04;100112.96;;;19.15;26.18
57452;BME280;66031;51.224;-0.164;2023-03-11T03:21:29;100111.64;;;18.99;26.29
57452;BME280;66031;51.224;-0.164;2023-03-11T03:23:55;100112.28;;;18.71;26.30
57452;BME280;66031;51.224;-0.164;2023-03-11T03:26:20;100116.86;;;19.04;26.18
57452;BME280;66031;51.224;-0.164;2023-03-11T03:28:46;100125.18;;;18.96;26.28
57452;BME280;66031;51.224;-0.164;2023-03-11T03:31:12;100126.12;;;18.89;26.29
57452;BME280;66031;51.224;-0.164;2023-03-11T03:33:37;100117.90;;;18.81;26.38
57452;BME280;66031;51.224;-0.164;2023-03-11T03:36:05;100108.53;;;18.73;26.35
57452;BME280;66031;51.224;-0.164;2023-03-11T03:38:28;100109.51;;;18.70;26.38
57452;BME280;66031;51.224;-0.164;2023-03-11T03:40:53;100110.59;;;18.54;26.31
57452;BME280;66031;51.224;-0.164;2023-03-11T03:43:19;100115.12;;;18.74;26.30
57452;BME280;66031;51.224;-0.164;2023-03-11T03:45:44;100115.45;;;18.67;26.36
57452;BME280;66031;51.224;-0.164;2023-03-11T03:48:10;100113.93;;;18.67;26.31
57452;BME280;66031;51.224;-0.164;2023-03-11T03:50:35;100121.19;;;18.63;26.34
57452;BME280;66031;51.224;-0.164;2023-03-11T03:53:01;100125.10;;;18.62;26.36
57452;BME280;66031;51.224;-0.164;2023-03-11T03:55:26;100123.91;;;18.35;26.33
57452;BME280;66031;51.224;-0.164;2023-03-11T03:57:51;100122.09;;;18.60;26.27
57452;BME280;66031;51.224;-0.164;2023-03-11T04:00:18;100116.49;;;18.55;26.32
57452;BME280;66031;51.224;-0.164;2023-03-11T04:02:42;100098.69;;;18.42;26.21
57452;BME280;66031;51.224;-0.164;2023-03-11T04:05:09;100090.40;;;18.63;26.18
57452;BME280;66031;51.224;-0.164;2023-03-11T04:07:34;100096.35;;;18.56;26.22
57452;BME280;66031;51.224;-0.164;2023-03-11T04:09:59;100102.40;;;18.51;26.23
57452;BME280;66031;51.224;-0.164;2023-03-11T04:12:24;100104.93;;;18.53;26.23
57452;BME280;66031;51.224;-0.164;2023-03-11T04:14:50;100103.98;;;18.52;26.20
57452;BME280;66031;51.224;-0.164;2023-03-11T04:17:15;100101.38;;;18.46;26.21
57452;BME280;66031;51.224;-0.164;2023-03-11T04:19:40;100098.57;;;18.63;26.04
57452;BME280;66031;51.224;-0.164;2023-03-11T04:22:06;100107.44;;;18.32;26.09
57452;BME280;66031;51.224;-0.164;2023-03-11T04:24:31;100115.40;;;18.46;26.16
57452;BME280;66031;51.224;-0.164;2023-03-11T04:26:57;100120.03;;;18.41;26.17
57452;BME280;66031;51.224;-0.164;2023-03-11T04:29:22;100126.65;;;18.44;26.14
57452;BME280;66031;51.224;-0.164;2023-03-11T04:31:48;100137.62;;;18.30;26.22
57452;BME280;66031;51.224;-0.164;2023-03-11T04:34:13;100143.99;;;18.33;26.21
57452;BME280;66031;51.224;-0.164;2023-03-11T04:36:39;100139.44;;;18.31;26.19
57452;BME280;66031;51.224;-0.164;2023-03-11T04:39:04;100135.17;;;18.22;26.28
57452;BME280;66031;51.224;-0.164;2023-03-11T04:41:30;100131.18;;;18.45;26.23
57452;BME280;66031;51.224;-0.164;2023-03-11T04:43:55;100140.37;;;18.23;26.19
57452;BME280;66031;51.224;-0.164;2023-03-11T04:46:20;100140.61;;;18.15;26.24
57452;BME280;66031;51.224;-0.164;2023-03-11T04:48:46;100147.03;;;18.37;26.28
57452;BME280;66031;51.224;-0.164;2023-03-11T04:51:11;100160.52;;;18.12;26.24
57452;BME280;66031;51.224;-0.164;2023-03-11T04:53:37;100167.69;;;18.32;26.26
57452;BME280;66031;51.224;-0.164;2023-03-11T04:56:02;100167.57;;;18.36;26.27
57452;BME280;66031;51.224;-0.164;2023-03-11T04:58:27;100163.46;;;18.38;26.20
57452;BME280;66031;51.224;-0.164;2023-03-11T05:00:53;100159.93;;;18.40;26.11
57452;BME280;66031;51.224;-0.164;2023-03-11T05:03:18;100164.56;;;18.34;26.16
57452;BME280;66031;51.224;-0.164;2023-03-11T05:05:44;100169.72;;;18.23;26.20
57452;BME280;66031;51.224;-0.164;2023-03-11T05:08:10;100169.24;;;18.23;26.25
57452;BME280;66031;51.224;-0.164;2023-03-11T05:10:35;100167.30;;;18.09;26.08
57452;BME280;66031;51.224;-0.164;2023-03-11T05:13:02;100169.15;;;18.26;26.14
57452;BME280;66031;51.224;-0.164;2023-03-11T05:15:27;100168.59;;;18.22;26.25
57452;BME280;66031;51.224;-0.164;2023-03-11T05:17:52;100171.60;;;18.36;26.06
57452;BME280;66031;51.224;-0.164;2023-03-11T05:20:18;100172.23;;;18.09;26.09
57452;BME280;66031;51.224;-0.164;2023-03-11T05:22:43;100174.07;;;18.58;26.02
57452;BME280;66031;51.224;-0.164;2023-03-11T05:25:09;100180.25;;;18.01;26.10
57452;BME280;66031;51.224;-0.164;2023-03-11T05:27:34;100189.10;;;17.89;26.17
57452;BME280;66031;51.224;-0.164;2023-03-11T05:29:59;100197.00;;;18.12;26.14
57452;BME280;66031;51.224;-0.164;2023-03-11T05:32:25;100199.05;;;18.04;26.21
57452;BME280;66031;51.224;-0.164;2023-03-11T05:34:50;100198.62;;;17.95;26.30
57452;BME280;66031;51.224;-0.164;2023-03-11T05:37:16;100196.23;;;18.15;26.32
57452;BME280;66031;51.224;-0.164;2023-03-11T05:39:41;100197.97;;;18.20;26.29
57452;BME280;66031;51.224;-0.164;2023-03-11T05:42:07;100202.86;;;18.20;26.26
57452;BME280;66031;51.224;-0.164;2023-03-11T05:44:33;100210.71;;;17.88;26.13
57452;BME280;66031;51.224;-0.164;2023-03-11T05:46:58;100206.50;;;17.99;25.92
57452;BME280;66031;51.224;-0.164;2023-03-11T05:49:23;100207.84;;;18.11;26.04
57452;BME280;66031;51.224;-0.164;2023-03-11T05:51:49;100201.25;;;18.07;26.07
57452;BME280;66031;51.224;-0.164;2023-03-11T05:54:14;100199.02;;;17.77;26.11
57452;BME280;66031;51.224;-0.164;2023-03-11T05:56:40;100191.44;;;17.94;26.11
57452;BME280;66031;51.224;-0.164;2023-03-11T05:59:05;100191.10;;;18.15;26.16
57452;BME280;66031;51.224;-0.164;2023-03-11T06:01:30;100191.70;;;18.19;26.08
57452;BME280;66031;51.224;-0.164;2023-03-11T06:03:56;100186.75;;;18.08;26.23
57452;BME280;66031;51.224;-0.164;2023-03-11T06:06:21;100183.82;;;18.06;26.15
57452;BME280;66031;51.224;-0.164;2023-03-11T06:08:47;100182.50;;;17.75;26.17
57452;BME280;66031;51.224;-0.164;2023-03-11T06:11:12;100181.41;;;18.08;26.12
57452;BME280;66031;51.224;-0.164;2023-03-11T06:13:38;100185.99;;;17.85;26.11
57452;BME280;66031;51.224;-0.164;2023-03-11T06:16:04;100192.69;;;17.56;26.15
57452;BME280;66031;51.224;-0.164;2023-03-11T06:18:29;100201.20;;;18.18;25.99
57452;BME280;66031;51.224;-0.164;2023-03-11T06:20:57;100208.03;;;18.02;25.89
57452;BME280;66031;51.224;-0.164;2023-03-11T06:23:20;100212.91;;;17.62;25.96
57452;BME280;66031;51.224;-0.164;2023-03-11T06:25:54;100202.81;;;17.75;25.82
57452;BME280;66031;51.224;-0.164;2023-03-11T06:28:10;100207.19;;;18.22;25.81
57452;BME280;66031;51.224;-0.164;2023-03-11T06:30:36;100216.35;;;18.12;25.94
57452;BME280;66031;51.224;-0.164;2023-03-11T06:33:01;100219.52;;;17.87;25.97
57452;BME280;66031;51.224;-0.164;2023-03-11T06:35:27;100220.51;;;17.83;26.05
57452;BME280;66031;51.224;-0.164;2023-03-11T06:37:52;100216.03;;;17.92;26.06
57452;BME280;66031;51.224;-0.164;2023-03-11T06:40:18;100212.64;;;18.55;25.79
57452;BME280;66031;51.224;-0.164;2023-03-11T06:42:44;100215.06;;;18.31;25.60
57452;BME280;66031;51.224;-0.164;2023-03-11T06:45:09;100217.49;;;19.10;25.35
57452;BME280;66031;51.224;-0.164;2023-03-11T06:47:34;100217.80;;;19.19;25.25
57452;BME280;66031;51.224;-0.164;2023-03-11T06:50:00;100225.38;;;19.07;25.21
57452;BME280;66031;51.224;-0.164;2023-03-11T06:52:25;100223.14;;;19.19;25.15
57452;BME280;66031;51.224;-0.164;2023-03-11T06:54:50;100228.46;;;19.41;24.98
57452;BME280;66031;51.224;-0.164;2023-03-11T06:57:16;100236.50;;;19.56;24.82
57452;BME280;66031;51.224;-0.164;2023-03-11T06:59:41;100242.22;;;19.57;24.69
57452;BME280;66031;51.224;-0.164;2023-03-11T07:02:12;100246.43;;;19.59;24.78
57452;BME280;66031;51.224;-0.164;2023-03-11T07:04:32;100239.09;;;19.60;24.78
57452;BME280;66031;51.224;-0.164;2023-03-11T07:06:58;100216.55;;;19.90;24.82
57452;BME280;66031;51.224;-0.164;2023-03-11T07:09:23;100216.98;;;19.75;24.71
57452;BME280;66031;51.224;-0.164;2023-03-11T07:11:48;100244.00;;;19.82;24.70
57452;BME280;66031;51.224;-0.164;2023-03-11T07:14:15;100257.46;;;20.09;24.74
57452;BME280;66031;51.224;-0.164;2023-03-11T07:16:39;100252.76;;;19.94;24.68
57452;BME280;66031;51.224;-0.164;2023-03-11T07:19:05;100254.40;;;20.28;24.34
57452;BME280;66031;51.224;-0.164;2023-03-11T07:21:31;100266.84;;;20.02;24.37
57452;BME280;66031;51.224;-0.164;2023-03-11T07:23:57;100270.90;;;20.26;24.39
57452;BME280;66031;51.224;-0.164;2023-03-11T07:26:22;100271.75;;;20.36;24.31
57452;BME280;66031;51.224;-0.164;2023-03-11T07:28:47;100281.45;;;20.16;24.28
57452;BME280;66031;51.224;-0.164;2023-03-11T07:31:13;100288.40;;;20.06;24.22
57452;BME280;66031;51.224;-0.164;2023-03-11T07:33:37;100287.83;;;20.21;24.13
57452;BME280;66031;51.224;-0.164;2023-03-11T07:36:05;100289.41;;;20.25;24.09
57452;BME280;66031;51.224;-0.164;2023-03-11T07:38:28;100289.36;;;20.33;24.04
57452;BME280;66031;51.224;-0.164;2023-03-11T07:40:57;100293.76;;;20.47;23.88
57452;BME280;66031;51.224;-0.164;2023-03-11T07:43:19;100285.96;;;20.56;23.88
57452;BME280;66031;51.224;-0.164;2023-03-11T07:45:44;100280.45;;;20.49;23.95
57452;BME280;66031;51.224;-0.164;2023-03-11T07:48:10;100277.47;;;20.55;23.93
57452;BME280;66031;51.224;-0.164;2023-03-11T07:50:35;100269.93;;;20.94;23.76
57452;BME280;66031;51.224;-0.164;2023-03-11T07:53:00;100264.39;;;21.03;23.75
57452;BME280;66031;51.224;-0.164;2023-03-11T07:55:26;100260.28;;;20.80;23.73
57452;BME280;66031;51.224;-0.164;2023-03-11T07:57:51;100256.41;;;20.92;23.65
57452;BME280;66031;51.224;-0.164;2023-03-11T08:00:18;100263.62;;;21.07;23.52
57452;BME280;66031;51.224;-0.164;2023-03-11T08:02:42;100259.85;;;21.08;23.53
57452;BME280;66031;51.224;-0.164;2023-03-11T08:05:08;100257.62;;;21.15;23.44
57452;BME280;66031;51.224;-0.164;2023-03-11T08:07:33;100263.05;;;21.39;23.48
57452;BME280;66031;51.224;-0.164;2023-03-11T08:09:59;100264.36;;;21.22;23.43
57452;BME280;66031;51.224;-0.164;2023-03-11T08:12:24;100264.42;;;21.28;23.42
57452;BME280;66031;51.224;-0.164;2023-03-11T08:14:49;100261.55;;;21.41;23.31
57452;BME280;66031;51.224;-0.164;2023-03-11T08:17:14;100261.66;;;21.23;23.27
57452;BME280;66031;51.224;-0.164;2023-03-11T08:19:41;100272.52;;;21.29;23.21
57452;BME280;66031;51.224;-0.164;2023-03-11T08:22:05;100279.39;;;21.02;23.27
57452;BME280;66031;51.224;-0.164;2023-03-11T08:24:30;100281.86;;;21.23;23.11
57452;BME280;66031;51.224;-0.164;2023-03-11T08:26:55;100287.91;;;21.37;23.25
57452;BME280;66031;51.224;-0.164;2023-03-11T08:29:21;100287.17;;;21.49;23.12
57452;BME280;66031;51.224;-0.164;2023-03-11T08:31:46;100285.87;;;21.52;23.11
57452;BME280;66031;51.224;-0.164;2023-03-11T08:34:12;100288.37;;;21.28;23.07
57452;BME280;66031;51.224;-0.164;2023-03-11T08:36:37;100284.77;;;21.23;23.18
57452;BME280;66031;51.224;-0.164;2023-03-11T08:39:03;100281.34;;;21.24;23.14
57452;BME280;66031;51.224;-0.164;2023-03-11T08:41:28;100279.76;;;21.37;23.24
57452;BME280;66031;51.224;-0.164;2023-03-11T08:43:54;100275.95;;;21.54;23.29
57452;BME280;66031;51.224;-0.164;2023-03-11T08:46:23;100278.55;;;20.98;23.33
57452;BME280;66031;51.224;-0.164;2023-03-11T08:48:44;100268.99;;;21.19;23.39
57452;BME280;66031;51.224;-0.164;2023-03-11T08:51:10;100260.50;;;20.99;23.39
57452;BME280;66031;51.224;-0.164;2023-03-11T08:53:34;100276.16;;;21.19;23.68
57452;BME280;66031;51.224;-0.164;2023-03-11T08:56:00;100280.12;;;21.01;23.96
57452;BME280;66031;51.224;-0.164;2023-03-11T08:58:25;100274.88;;;20.75;24.05
57452;BME280;66031;51.224;-0.164;2023-03-11T09:00:50;100273.26;;;20.74;24.11
57452;BME280;66031;51.224;-0.164;2023-03-11T09:03:16;100271.92;;;20.57;24.12
57452;BME280;66031;51.224;-0.164;2023-03-11T09:05:41;100262.64;;;20.50;24.28
57452;BME280;66031;51.224;-0.164;2023-03-11T09:08:07;100258.98;;;20.34;23.98
57452;BME280;66031;51.224;-0.164;2023-03-11T09:10:32;100260.54;;;20.37;24.01
57452;BME280;66031;51.224;-0.164;2023-03-11T09:12:57;100268.68;;;20.08;24.31
57452;BME280;66031;51.224;-0.164;2023-03-11T09:15:23;100264.98;;;19.82;24.69
57452;BME280;66031;51.224;-0.164;2023-03-11T09:17:48;100266.48;;;19.82;24.57
57452;BME280;66031;51.224;-0.164;2023-03-11T09:20:15;100263.93;;;20.65;24.17
57452;BME280;66031;51.224;-0.164;2023-03-11T09:22:39;100266.13;;;20.11;24.53
57452;BME280;66031;51.224;-0.164;2023-03-11T09:25:05;100264.75;;;20.09;24.61
57452;BME280;66031;51.224;-0.164;2023-03-11T09:27:30;100275.02;;;20.26;24.61
57452;BME280;66031;51.224;-0.164;2023-03-11T09:29:55;100281.61;;;19.84;24.70
57452;BME280;66031;51.224;-0.164;2023-03-11T09:32:20;100284.90;;;19.76;24.90
57452;BME280;66031;51.224;-0.164;2023-03-11T09:34:46;100283.77;;;19.75;24.68
57452;BME280;66031;51.224;-0.164;2023-03-11T09:37:11;100290.10;;;19.92;24.97
57452;BME280;66031;51.224;-0.164;2023-03-11T09:39:37;100295.88;;;19.77;24.95
57452;BME280;66031;51.224;-0.164;2023-03-11T09:42:09;100302.05;;;19.41;25.05
57452;BME280;66031;51.224;-0.164;2023-03-11T09:44:30;100307.64;;;19.56;25.13
57452;BME280;66031;51.224;-0.164;2023-03-11T09:47:03;100302.27;;;19.78;25.28
57452;BME280;66031;51.224;-0.164;2023-03-11T09:49:24;100303.23;;;19.52;25.31
57452;BME280;66031;51.224;-0.164;2023-03-11T09:51:48;100301.37;;;19.60;25.52
57452;BME280;66031;51.224;-0.164;2023-03-11T09:54:10;100300.63;;;19.32;25.27
57452;BME280;66031;51.224;-0.164;2023-03-11T09:56:35;100295.38;;;19.84;25.25
57452;BME280;66031;51.224;-0.164;2023-03-11T09:59:03;100296.72;;;19.20;25.45
57452;BME280;66031;51.224;-0.164;2023-03-11T10:01:28;100288.43;;;19.68;25.47
57452;BME280;66031;51.224;-0.164;2023-03-11T10:03:52;100291.17;;;19.29;25.63
57452;BME280;66031;51.224;-0.164;2023-03-11T10:06:20;100292.62;;;18.98;25.82
57452;BME280;66031;51.224;-0.164;2023-03-11T10:08:45;100297.89;;;19.21;25.73
57452;BME280;66031;51.224;-0.164;2023-03-11T10:11:16;100291.40;;;19.13;25.68
57452;BME280;66031;51.224;-0.164;2023-03-11T10:13:37;100288.73;;;19.22;25.80
57452;BME280;66031;51.224;-0.164;2023-03-11T10:16:05;100286.38;;;18.98;25.88
57452;BME280;66031;51.224;-0.164;2023-03-11T10:18:35;100280.56;;;19.00;25.78
57452;BME280;66031;51.224;-0.164;2023-03-11T10:20:53;100281.05;;;18.98;25.76
57452;BME280;66031;51.224;-0.164;2023-03-11T10:23:23;100280.48;;;18.93;25.72
57452;BME280;66031;51.224;-0.164;2023-03-11T10:25:48;100283.07;;;18.93;25.64
57452;BME280;66031;51.224;-0.164;2023-03-11T10:28:10;100280.68;;;18.84;25.68
57452;BME280;66031;51.224;-0.164;2023-03-11T10:30:32;100279.29;;;19.12;25.56
57452;BME280;66031;51.224;-0.164;2023-03-11T10:32:58;100272.34;;;18.96;25.69
57452;BME280;66031;51.224;-0.164;2023-03-11T10:35:22;100270.37;;;19.13;25.73
57452;BME280;66031;51.224;-0.164;2023-03-11T10:37:51;100267.50;;;18.77;25.83
57452;BME280;66031;51.224;-0.164;2023-03-11T10:40:17;100265.65;;;19.34;25.56
57452;BME280;66031;51.224;-0.164;2023-03-11T10:42:37;100268.79;;;18.81;25.92
57452;BME280;66031;51.224;-0.164;2023-03-11T10:45:04;100269.96;;;18.81;26.15
57452;BME280;66031;51.224;-0.164;2023-03-11T10:47:28;100270.48;;;19.22;26.38
57452;BME280;66031;51.224;-0.164;2023-03-11T10:49:53;100268.99;;;19.24;26.43
57452;BME280;66031;51.224;-0.164;2023-03-11T10:52:19;100262.57;;;19.62;26.15
57452;BME280;66031;51.224;-0.164;2023-03-11T10:54:46;100262.52;;;19.51;27.55
57452;BME280;66031;51.224;-0.164;2023-03-11T10:57:21;100254.65;;;19.25;27.57
57452;BME280;66031;51.224;-0.164;2023-03-11T10:59:46;100255.87;;;19.26;27.50
57452;BME280;66031;51.224;-0.164;2023-03-11T11:02:02;100248.43;;;19.26;27.82
57452;BME280;66031;51.224;-0.164;2023-03-11T11:04:29;100250.16;;;19.29;27.78
57452;BME280;66031;51.224;-0.164;2023-03-11T11:06:51;100247.54;;;19.05;28.35
57452;BME280;66031;51.224;-0.164;2023-03-11T11:09:18;100241.30;;;19.47;28.27
57452;BME280;66031;51.224;-0.164;2023-03-11T11:11:42;100246.64;;;19.40;27.68
57452;BME280;66031;51.224;-0.164;2023-03-11T11:14:07;100243.60;;;19.41;27.55
57452;BME280;66031;51.224;-0.164;2023-03-11T11:16:33;100245.01;;;19.11;27.45
57452;BME280;66031;51.224;-0.164;2023-03-11T11:19:01;100246.18;;;19.52;27.27
57452;BME280;66031;51.224;-0.164;2023-03-11T11:21:30;100240.76;;;19.51;27.21
57452;BME280;66031;51.224;-0.164;2023-03-11T11:24:00;100237.49;;;19.50;27.16
57452;BME280;66031;51.224;-0.164;2023-03-11T11:26:16;100232.49;;;19.61;27.16
57452;BME280;66031;51.224;-0.164;2023-03-11T11:28:40;100231.24;;;19.32;27.76
57452;BME280;66031;51.224;-0.164;2023-03-11T11:31:19;100225.46;;;19.51;27.83
57452;BME280;66031;51.224;-0.164;2023-03-11T11:33:32;100221.40;;;19.13;28.06
57452;BME280;66031;51.224;-0.164;2023-03-11T11:35:58;100222.28;;;19.09;27.98
57452;BME280;66031;51.224;-0.164;2023-03-11T11:38:23;100217.30;;;19.26;28.05
57452;BME280;66031;51.224;-0.164;2023-03-11T11:40:47;100210.94;;;19.00;27.94
57452;BME280;66031;51.224;-0.164;2023-03-11T11:43:15;100208.88;;;19.08;27.97
57452;BME280;66031;51.224;-0.164;2023-03-11T11:45:40;100214.77;;;19.43;27.80
57452;BME280;66031;51.224;-0.164;2023-03-11T11:48:10;100213.30;;;19.34;27.69
57452;BME280;66031;51.224;-0.164;2023-03-11T11:50:32;100214.07;;;19.83;27.22
57452;BME280;66031;51.224;-0.164;2023-03-11T11:52:57;100210.44;;;19.51;27.35
57452;BME280;66031;51.224;-0.164;2023-03-11T11:55:23;100211.45;;;19.39;27.51
57452;BME280;66031;51.224;-0.164;2023-03-11T11:57:44;100213.87;;;19.53;27.53
57452;BME280;66031;51.224;-0.164;2023-03-11T12:00:17;100218.91;;;19.17;27.12
57452;BME280;66031;51.224;-0.164;2023-03-11T12:02:45;100213.44;;;19.43;25.76
57452;BME280;66031;51.224;-0.164;2023-03-11T12:05:06;100213.31;;;19.35;25.72
57452;BME280;66031;51.224;-0.164;2023-03-11T12:07:34;100216.01;;;19.46;25.81
57452;BME280;66031;51.224;-0.164;2023-03-11T12:09:56;100213.80;;;19.19;26.01
57452;BME280;66031;51.224;-0.164;2023-03-11T12:12:22;100214.37;;;19.36;26.15
57452;BME280;66031;51.224;-0.164;2023-03-11T12:14:46;100219.00;;;19.39;26.06
57452;BME280;66031;51.224;-0.164;2023-03-11T12:17:08;100219.41;;;19.48;25.99
57452;BME280;66031;51.224;-0.164;2023-03-11T12:19:38;100219.46;;;19.57;25.79
57452;BME280;66031;51.224;-0.164;2023-03-11T12:22:16;100219.78;;;19.27;26.10
57452;BME280;66031;51.224;-0.164;2023-03-11T12:24:37;100218.94;;;19.29;26.05
57452;BME280;66031;51.224;-0.164;2023-03-11T12:26:51;100220.55;;;19.29;26.00
57452;BME280;66031;51.224;-0.164;2023-03-11T12:29:22;100221.67;;;19.38;26.21
57452;BME280;66031;51.224;-0.164;2023-03-11T12:31:40;100219.35;;;19.20;26.12